Time;durP1;ratioP1;P1;durP2;ratioP2;P2;SDS_P1;SDS_P2;PMS_P1;PMS_P2;Temp;Humidity;BMP_temperature;BMP_pressure;BME280_temperature;BME280_humidity;BME280_pressure;Samples;Min_cycle;Max_cycle;Signal;HPM_P1;HPM_P2
2022/07/27 00:02:05;;;;;;;9.50;6.28;;;;;;;24.98;61.23;99072.81;4855226;29;20206;-90
2022/07/27 00:04:31;;;;;;;13.05;6.50;;;;;;;24.24;61.53;99005.31;4856086;29;20045;-90
2022/07/27 00:06:56;;;;;;;11.60;7.63;;;;;;;24.30;61.75;99032.59;4856262;29;20037;-91
2022/07/27 00:09:22;;;;;;;8.70;5.97;;;;;;;24.13;61.96;99023.19;4855778;29;20048;-90
2022/07/27 00:11:48;;;;;;;7.10;5.15;;;;;;;24.30;61.22;99058.69;4856956;29;20086;-90
2022/07/27 00:14:14;;;;;;;8.63;6.22;;;;;;;24.09;61.46;99037.91;4855797;29;20169;-90
2022/07/27 00:16:40;;;;;;;8.13;5.38;;;;;;;24.25;60.92;99039.34;4856372;29;20485;-90
2022/07/27 00:19:09;;;;;;;12.30;5.65;;;;;;;24.16;60.84;99019.41;4857734;29;20557;-90
2022/07/27 00:21:39;;;;;;;9.90;6.25;;;;;;;24.21;60.09;99019.03;4856521;29;20664;-90
2022/07/27 00:24:12;;;;;;;12.05;6.80;;;;;;;24.28;61.05;99045.34;4856287;29;20041;-91
2022/07/27 00:26:55;;;;;;;10.13;6.32;;;;;;;24.02;60.82;99025.06;4856020;29;20068;-92
2022/07/27 00:29:20;;;;;;;9.82;5.47;;;;;;;23.97;61.16;99009.25;4856187;29;20499;-91
2022/07/27 00:31:46;;;;;;;8.27;5.85;;;;;;;24.05;61.53;99019.41;4855388;29;20900;-89
2022/07/27 00:34:12;;;;;;;10.32;5.85;;;;;;;24.73;61.13;99100.13;4869273;29;20050;-90
2022/07/27 00:36:38;;;;;;;9.30;6.13;;;;;;;24.24;61.26;99040.34;4855364;29;20114;-89
2022/07/27 00:39:03;;;;;;;11.88;6.70;;;;;;;24.45;60.91;99084.38;4855548;29;20049;-89
2022/07/27 00:41:29;;;;;;;10.20;6.38;;;;;;;24.23;61.21;99061.00;4855511;29;20129;-89
2022/07/27 00:43:59;;;;;;;10.85;6.57;;;;;;;24.00;61.85;99022.47;4855440;29;20539;-89
2022/07/27 00:46:26;;;;;;;12.25;5.50;;;;;;;24.14;61.83;99059.06;4869995;29;20047;-89
2022/07/27 00:48:52;;;;;;;10.75;6.93;;;;;;;23.91;62.24;99040.25;4869811;29;20036;-89
2022/07/27 00:51:23;;;;;;;9.90;5.72;;;;;;;23.87;62.32;99027.19;4855199;29;20042;-89
2022/07/27 00:53:50;;;;;;;11.25;7.47;;;;;;;23.66;62.09;99029.72;4854671;29;20044;-89
2022/07/27 00:56:15;;;;;;;10.05;6.78;;;;;;;23.51;63.16;99023.69;4855158;29;20420;-89
2022/07/27 00:58:44;;;;;;;9.40;5.88;;;;;;;23.99;62.72;99079.16;4853236;29;20101;-89
2022/07/27 01:01:09;;;;;;;12.02;6.65;;;;;;;24.06;62.73;99097.41;4855033;29;20533;-89
2022/07/27 01:03:35;;;;;;;11.48;7.32;;;;;;;23.91;62.76;99079.78;4855649;29;20037;-89
2022/07/27 01:06:01;;;;;;;7.85;5.95;;;;;;;23.34;63.88;99066.28;4854045;29;20034;-89
2022/07/27 01:08:27;;;;;;;11.93;7.05;;;;;;;23.42;64.34;99092.59;4855035;29;20034;-89
2022/07/27 01:10:55;;;;;;;8.30;4.97;;;;;;;23.18;63.86;99058.50;4868895;29;20044;-90
2022/07/27 01:13:21;;;;;;;9.82;5.90;;;;;;;23.19;63.78;99024.44;4854955;29;20508;-89
2022/07/27 01:15:47;;;;;;;9.38;6.88;;;;;;;23.47;63.23;99057.25;4854748;29;20041;-88
2022/07/27 01:18:42;;;;;;;9.80;5.47;;;;;;;23.76;62.16;99080.00;4868959;29;20056;-87
2022/07/27 01:21:10;;;;;;;9.05;5.82;;;;;;;23.80;61.88;99042.06;4854625;29;20034;-88
2022/07/27 01:23:36;;;;;;;12.77;6.10;;;;;;;23.59;62.02;99029.34;4838554;29;20042;-89
2022/07/27 01:26:03;;;;;;;12.50;6.10;;;;;;;23.77;62.17;99057.50;4855067;29;20056;-89
2022/07/27 01:28:28;;;;;;;10.20;7.07;;;;;;;23.58;62.55;99050.00;4854750;29;20073;-90
2022/07/27 01:30:55;;;;;;;10.43;5.68;;;;;;;23.62;62.56;99061.41;4855045;29;20078;-89
2022/07/27 01:33:27;;;;;;;9.57;5.30;;;;;;;23.62;62.43;99065.91;4854758;29;20045;-89
2022/07/27 01:35:54;;;;;;;10.45;6.55;;;;;;;23.57;61.98;99048.31;4853592;29;20074;-90
2022/07/27 01:38:20;;;;;;;9.70;5.57;;;;;;;24.15;62.02;99130.00;4853120;29;20521;-89
2022/07/27 01:40:45;;;;;;;11.05;7.22;;;;;;;23.41;62.25;99037.88;4853522;29;20068;-91
2022/07/27 01:43:11;;;;;;;9.82;6.30;;;;;;;23.75;61.60;99078.28;4854726;29;20037;-90
2022/07/27 01:45:38;;;;;;;10.25;6.68;;;;;;;23.66;60.74;99057.47;4853441;29;20097;-89
2022/07/27 01:48:05;;;;;;;10.50;6.57;;;;;;;23.72;59.92;99069.59;4869313;29;20105;-90
2022/07/27 01:50:30;;;;;;;10.15;7.38;;;;;;;23.99;60.99;99142.00;4837693;29;20117;-90
2022/07/27 01:52:56;;;;;;;11.00;6.85;;;;;;;23.23;62.21;99071.59;4855167;29;20045;-89
2022/07/27 01:55:22;;;;;;;10.63;6.50;;;;;;;22.88;63.26;99056.34;4853620;29;20895;-90
2022/07/27 01:57:48;;;;;;;9.32;6.38;;;;;;;23.01;63.72;99091.22;4854576;29;20049;-90
2022/07/27 02:00:14;;;;;;;11.38;6.85;;;;;;;22.54;65.33;99088.44;4854053;29;20048;-90
2022/07/27 02:02:40;;;;;;;11.98;7.68;;;;;;;22.45;65.78;99068.47;4868928;29;20509;-90
2022/07/27 02:05:06;;;;;;;11.07;6.80;;;;;;;22.44;65.73;99069.44;4854726;29;20033;-90
2022/07/27 02:07:32;;;;;;;15.85;8.63;;;;;;;22.75;65.73;99110.16;4868908;29;20489;-89
2022/07/27 02:09:57;;;;;;;13.85;9.75;;;;;;;22.40;65.73;99053.66;4856015;29;20120;-90
2022/07/27 02:12:35;;;;;;;13.43;8.60;;;;;;;22.57;66.01;99053.28;4857585;29;20481;-89
2022/07/27 02:15:09;;;;;;;11.68;8.35;;;;;;;22.64;65.76;99061.72;4858216;29;20841;-90
2022/07/27 02:17:35;;;;;;;10.48;7.22;;;;;;;22.71;65.29;99071.91;4872209;29;20044;-89
2022/07/27 02:20:02;;;;;;;10.52;7.68;;;;;;;22.85;64.98;99067.31;4857472;29;20033;-89
2022/07/27 02:22:28;;;;;;;11.02;7.93;;;;;;;22.91;64.77;99084.81;4853145;29;20034;-89
2022/07/27 02:24:54;;;;;;;10.15;8.20;;;;;;;22.70;65.27;99069.34;4839744;29;20045;-89
2022/07/27 02:27:21;;;;;;;11.32;7.38;;;;;;;22.84;65.22;99069.13;4850427;29;20167;-89
2022/07/27 02:29:46;;;;;;;11.52;6.70;;;;;;;22.84;64.93;99081.72;4858057;29;20515;-88
2022/07/27 02:32:12;;;;;;;10.85;6.82;;;;;;;22.75;65.30;99071.69;4857433;29;20038;-88
2022/07/27 02:34:37;;;;;;;11.77;6.43;;;;;;;22.84;65.02;99089.81;4857408;29;20058;-89
2022/07/27 02:37:03;;;;;;;13.48;7.63;;;;;;;22.65;65.25;99047.31;4857766;29;20041;-89
2022/07/27 02:39:28;;;;;;;8.77;6.97;;;;;;;22.86;64.93;99079.78;4857436;29;20443;-90
2022/07/27 02:42:02;;;;;;;9.55;5.95;;;;;;;22.94;64.86;99093.53;4848724;29;20842;-89
2022/07/27 02:44:28;;;;;;;11.35;6.90;;;;;;;22.81;64.96;99072.06;4856487;29;20041;-89
2022/07/27 02:46:53;;;;;;;12.55;6.80;;;;;;;23.01;64.93;99094.75;4857147;29;20093;-89
2022/07/27 02:49:19;;;;;;;8.80;6.63;;;;;;;22.73;64.37;99052.97;4857724;29;20041;-90
2022/07/27 02:51:50;;;;;;;12.48;7.40;;;;;;;23.06;63.24;99087.19;4856796;29;20038;-91
2022/07/27 02:54:20;;;;;;;9.73;6.38;;;;;;;22.84;63.57;99079.03;4857106;29;20033;-90
2022/07/27 02:56:47;;;;;;;9.68;5.95;;;;;;;22.64;63.58;99054.50;4857192;29;20085;-89
2022/07/27 02:59:13;;;;;;;9.82;6.78;;;;;;;23.00;62.74;99089.47;4855413;29;20048;-90
2022/07/27 03:01:39;;;;;;;10.65;7.82;;;;;;;22.63;62.79;99068.06;4857735;29;20105;-90
2022/07/27 03:04:04;;;;;;;9.93;6.60;;;;;;;22.71;62.59;99071.91;4858425;29;20677;-90
2022/07/27 03:06:31;;;;;;;11.32;7.22;;;;;;;23.34;62.54;99133.53;4857764;29;20527;-91
2022/07/27 03:08:57;;;;;;;10.10;6.18;;;;;;;23.19;62.33;99111.34;4856788;29;20048;-91
2022/07/27 03:11:23;;;;;;;17.55;8.93;;;;;;;23.11;61.90;99110.22;4857280;29;20047;-89
2022/07/27 03:13:48;;;;;;;9.60;6.32;;;;;;;22.85;62.37;99121.94;4857809;29;20120;-94
2022/07/27 03:16:14;;;;;;;12.27;8.48;;;;;;;22.39;63.70;99084.19;4871923;29;20033;-93
2022/07/27 03:18:40;;;;;;;12.07;8.57;;;;;;;22.38;62.82;99074.41;4858067;29;20160;-93
2022/07/27 03:21:09;;;;;;;9.57;6.90;;;;;;;22.68;63.89;99125.91;4855469;29;20520;-91
2022/07/27 03:23:34;;;;;;;11.30;6.78;;;;;;;22.81;63.11;99124.97;4857899;29;20538;-88
2022/07/27 03:26:02;;;;;;;9.75;6.63;;;;;;;22.46;63.43;99064.81;4858159;29;20033;-91
2022/07/27 03:28:28;;;;;;;9.45;5.93;;;;;;;22.72;63.86;99123.81;4855896;29;20084;-94
2022/07/27 03:31:06;;;;;;;14.30;6.60;;;;;;;22.35;64.17;99084.44;4857503;29;20544;-96
2022/07/27 03:33:34;;;;;;;10.60;8.10;;;;;;;22.61;64.17;99129.16;4856175;29;20060;-92
2022/07/27 03:36:00;;;;;;;10.15;6.78;;;;;;;22.47;64.29;99108.66;4857277;29;20041;-90
2022/07/27 03:38:27;;;;;;;10.98;7.45;;;;;;;22.42;64.91;99102.78;4858321;29;20088;-90
2022/07/27 03:40:58;;;;;;;10.25;6.13;;;;;;;22.48;64.55;99108.56;4860516;29;20030;-93
2022/07/27 03:43:24;;;;;;;9.45;5.43;;;;;;;22.63;64.69;99132.56;4860143;29;20033;-95
2022/07/27 03:45:52;;;;;;;7.65;5.55;;;;;;;22.56;64.79;99129.50;4856883;29;20037;-93
2022/07/27 03:48:18;;;;;;;7.90;5.95;;;;;;;22.37;64.93;99119.25;4868333;29;20071;-91
2022/07/27 03:50:47;;;;;;;10.77;5.30;;;;;;;22.78;65.10;99187.03;4840113;29;20041;-85
2022/07/27 03:53:13;;;;;;;10.82;5.72;;;;;;;22.49;65.16;99131.78;4856745;29;20033;-89
2022/07/27 03:55:39;;;;;;;10.27;6.00;;;;;;;22.89;65.09;99185.28;4855499;29;20073;-87
2022/07/27 03:58:04;;;;;;;8.18;6.18;;;;;;;22.85;65.43;99185.63;4855805;29;20185;-88
2022/07/27 04:00:30;;;;;;;11.40;5.80;;;;;;;22.65;65.35;99169.13;4855030;29;20070;-88
2022/07/27 04:02:55;;;;;;;11.52;6.57;;;;;;;22.48;66.49;99180.25;4855731;29;20959;-87
2022/07/27 04:05:20;;;;;;;9.45;6.40;;;;;;;22.46;66.47;99190.25;4855887;29;20033;-86
2022/07/27 04:07:46;;;;;;;10.73;7.07;;;;;;;22.56;66.40;99180.56;4856409;29;20524;-87
2022/07/27 04:10:12;;;;;;;10.40;7.78;;;;;;;22.48;66.33;99180.25;4855306;29;20421;-89
2022/07/27 04:12:38;;;;;;;13.73;7.80;;;;;;;22.64;65.50;99198.81;4850056;29;20041;-93
2022/07/27 04:15:05;;;;;;;14.20;8.00;;;;;;;22.53;65.55;99195.06;4851796;29;20432;-86
2022/07/27 04:17:31;;;;;;;14.75;7.88;;;;;;;22.59;65.35;99198.28;4842548;29;20056;-87
2022/07/27 04:19:56;;;;;;;13.77;7.53;;;;;;;22.60;64.58;99176.69;4855221;29;20053;-88
2022/07/27 04:22:22;;;;;;;10.18;7.68;;;;;;;22.86;64.28;99209.72;4855147;29;20049;-87
2022/07/27 04:24:47;;;;;;;13.18;8.95;;;;;;;22.69;64.01;99177.81;4855579;29;20045;-87
2022/07/27 04:27:12;;;;;;;10.43;7.43;;;;;;;23.20;62.49;99204.53;4853522;29;20064;-87
2022/07/27 04:29:38;;;;;;;9.57;6.88;;;;;;;23.22;62.88;99183.75;4854769;29;20041;-86
2022/07/27 04:32:04;;;;;;;11.57;7.85;;;;;;;23.20;62.33;99196.47;4854512;29;20037;-88
2022/07/27 04:34:29;;;;;;;10.90;7.47;;;;;;;23.11;63.33;99183.72;4852500;29;20064;-88
2022/07/27 04:36:55;;;;;;;10.57;7.15;;;;;;;23.19;62.86;99210.88;4855631;29;20041;-86
2022/07/27 04:39:20;;;;;;;8.57;5.95;;;;;;;23.19;63.48;99220.81;4855396;29;20115;-86
2022/07/27 04:41:46;;;;;;;10.77;6.72;;;;;;;23.02;63.00;99200.50;4853179;29;20109;-86
2022/07/27 04:44:11;;;;;;;10.35;7.18;;;;;;;23.40;61.47;99229.06;4855158;29;20129;-88
2022/07/27 04:46:37;;;;;;;12.00;7.40;;;;;;;23.27;62.18;99207.63;4854704;29;20148;-84
2022/07/27 04:49:03;;;;;;;8.77;6.20;;;;;;;23.72;61.05;99218.53;4855317;29;20038;-88
2022/07/27 04:51:28;;;;;;;9.15;5.50;;;;;;;23.77;61.05;99180.47;4854850;29;20037;-87
2022/07/27 04:53:53;;;;;;;10.95;7.15;;;;;;;23.85;59.87;99190.69;4855629;29;20112;-88
2022/07/27 04:56:19;;;;;;;8.90;5.85;;;;;;;24.51;58.96;99233.97;4855125;29;20053;-85
2022/07/27 04:58:44;;;;;;;7.55;6.13;;;;;;;24.28;59.20;99204.34;4854850;29;20489;-88
2022/07/27 05:01:11;;;;;;;11.20;7.47;;;;;;;24.18;58.65;99179.09;4853826;29;20123;-85
2022/07/27 05:03:38;;;;;;;10.65;6.88;;;;;;;24.42;59.43;99205.94;4854602;29;20050;-85
2022/07/27 05:06:04;;;;;;;11.75;8.18;;;;;;;24.14;59.47;99191.09;4854121;29;20580;-86
2022/07/27 05:08:30;;;;;;;8.63;6.28;;;;;;;24.46;59.11;99226.25;4854911;29;20120;-86
2022/07/27 05:10:55;;;;;;;14.10;8.25;;;;;;;24.84;57.82;99214.22;4854919;29;20061;-85
2022/07/27 05:13:21;;;;;;;13.85;8.02;;;;;;;24.82;57.88;99209.94;4855740;29;20044;-85
2022/07/27 05:15:46;;;;;;;11.18;7.18;;;;;;;25.20;57.50;99249.09;4855615;29;20046;-86
2022/07/27 05:18:12;;;;;;;12.65;7.30;;;;;;;25.24;57.28;99195.69;4854993;29;20056;-87
2022/07/27 05:20:37;;;;;;;10.55;6.47;;;;;;;25.15;57.29;99192.81;4855053;29;20041;-86
2022/07/27 05:23:03;;;;;;;10.90;7.13;;;;;;;25.58;55.81;99196.47;4855146;29;20025;-86
2022/07/27 05:25:28;;;;;;;11.48;7.18;;;;;;;26.06;54.68;99225.66;4854807;29;20417;-86
2022/07/27 05:27:54;;;;;;;9.23;6.07;;;;;;;26.17;54.36;99213.06;4854529;29;20120;-86
2022/07/27 05:30:22;;;;;;;9.60;6.13;;;;;;;26.58;53.52;99225.56;4854863;29;20528;-87
2022/07/27 05:32:47;;;;;;;12.43;7.07;;;;;;;26.51;54.05;99228.97;4854166;29;20037;-86
2022/07/27 05:35:13;;;;;;;8.77;5.63;;;;;;;26.35;53.94;99214.09;4853969;29;20113;-87
2022/07/27 05:37:39;;;;;;;8.60;5.55;;;;;;;26.55;54.24;99252.06;4853918;29;20029;-87
2022/07/27 05:40:07;;;;;;;8.20;5.25;;;;;;;26.25;52.76;99224.88;4853879;29;20037;-86
2022/07/27 05:42:33;;;;;;;14.10;6.63;;;;;;;26.04;55.00;99205.13;4854418;29;20041;-86
2022/07/27 05:44:59;;;;;;;7.85;5.57;;;;;;;26.84;51.97;99230.53;4854610;29;20043;-86
2022/07/27 05:47:24;;;;;;;6.88;4.55;;;;;;;26.95;51.11;99238.53;4854531;29;20046;-89
2022/07/27 05:49:50;;;;;;;8.43;6.28;;;;;;;27.00;52.14;99227.28;4854818;29;20397;-86
2022/07/27 05:52:15;;;;;;;8.77;5.47;;;;;;;27.27;49.99;99253.69;4854608;29;20033;-85
2022/07/27 05:54:42;;;;;;;7.78;5.72;;;;;;;27.04;50.75;99233.28;4868079;29;20512;-85
2022/07/27 05:57:08;;;;;;;8.38;4.93;;;;;;;27.29;51.66;99257.09;4854727;29;20034;-85
2022/07/27 05:59:35;;;;;;;10.27;5.38;;;;;;;27.21;51.30;99231.75;4854809;29;20124;-86
2022/07/27 06:02:01;;;;;;;8.15;5.55;;;;;;;27.49;49.20;99233.63;4854527;29;20041;-87
2022/07/27 06:04:26;;;;;;;8.02;4.82;;;;;;;27.90;49.73;99254.28;4854441;29;20044;-86
2022/07/27 06:09:36;;;;;;;7.80;5.18;;;;;;;27.72;48.92;99229.78;4854510;29;20057;-87
2022/07/27 06:12:02;;;;;;;7.80;4.80;;;;;;;27.73;49.79;99220.63;4854403;29;20129;-86
2022/07/27 06:14:27;;;;;;;8.45;5.78;;;;;;;28.42;48.07;99224.06;4854275;29;20487;-86
2022/07/27 06:16:53;;;;;;;7.97;5.32;;;;;;;28.53;47.15;99219.31;4854925;29;20124;-86
2022/07/27 06:19:19;;;;;;;8.23;5.38;;;;;;;28.32;47.04;99189.72;4854180;29;20049;-86
2022/07/27 06:21:44;;;;;;;6.40;4.63;;;;;;;28.36;47.87;99223.66;4854536;29;20048;-87
2022/07/27 06:24:10;;;;;;;9.38;6.30;;;;;;;28.85;48.04;99241.59;4854336;29;20030;-86
2022/07/27 06:26:36;;;;;;;17.23;6.65;;;;;;;28.95;45.59;99236.97;4854824;29;20120;-87
2022/07/27 06:29:03;;;;;;;9.93;6.85;;;;;;;29.34;45.53;99227.75;4854550;29;20029;-86
2022/07/27 06:31:29;;;;;;;9.57;6.38;;;;;;;29.50;44.41;99221.59;4854437;29;20034;-87
2022/07/27 06:33:55;;;;;;;9.18;5.60;;;;;;;29.52;44.31;99223.16;4854242;29;20847;-88
2022/07/27 06:36:21;;;;;;;9.05;6.25;;;;;;;29.77;43.77;99240.50;4853905;29;20432;-86
2022/07/27 06:38:48;;;;;;;9.20;6.03;;;;;;;29.86;43.13;99241.47;4854570;29;20034;-88
2022/07/27 06:41:13;;;;;;;8.98;5.80;;;;;;;29.79;42.20;99221.31;4854278;29;20037;-88
2022/07/27 06:43:39;;;;;;;9.45;6.57;;;;;;;30.03;44.12;99239.72;4854484;29;20088;-88
2022/07/27 06:46:06;;;;;;;9.88;7.50;;;;;;;30.26;42.88;99234.59;4854031;29;20060;-88
2022/07/27 06:48:32;;;;;;;10.73;6.80;;;;;;;30.04;42.17;99184.31;4854795;29;20533;-88
2022/07/27 06:50:59;;;;;;;10.07;6.40;;;;;;;30.22;43.14;99229.66;4854377;29;20038;-88
2022/07/27 06:53:25;;;;;;;7.10;5.60;;;;;;;30.10;42.83;99227.16;4854372;29;20041;-88
2022/07/27 06:55:51;;;;;;;7.28;5.55;;;;;;;30.52;42.39;99220.13;4854175;29;20045;-87
2022/07/27 06:58:17;;;;;;;10.80;6.43;;;;;;;31.10;40.50;99198.59;4856952;29;20045;-87
2022/07/27 07:00:43;;;;;;;8.82;6.07;;;;;;;31.31;40.27;99189.91;4857260;29;20457;-88
2022/07/27 07:03:10;;;;;;;10.68;6.30;;;;;;;31.78;38.76;99208.34;4857584;29;20041;-86
2022/07/27 07:05:42;;;;;;;8.65;6.22;;;;;;;31.89;40.21;99216.16;4857176;29;20037;-87
2022/07/27 07:08:10;;;;;;;9.75;7.03;;;;;;;32.09;38.89;99188.53;4871296;29;20060;-87
2022/07/27 07:10:37;;;;;;;8.18;6.30;;;;;;;31.92;37.76;99199.47;4857666;29;20038;-87
2022/07/27 07:13:04;;;;;;;9.10;6.18;;;;;;;31.49;41.21;99182.41;4857248;29;20043;-86
2022/07/27 07:15:29;;;;;;;8.07;6.05;;;;;;;31.98;40.25;99216.13;4857128;29;20041;-86
2022/07/27 07:17:55;;;;;;;10.88;6.85;;;;;;;32.06;38.75;99181.53;4857331;29;20822;-87
2022/07/27 07:20:21;;;;;;;7.38;5.07;;;;;;;31.81;39.50;99186.19;4857084;29;20076;-87
2022/07/27 07:22:46;;;;;;;14.52;7.85;;;;;;;32.75;36.90;99193.78;4857063;29;20075;-86
2022/07/27 07:25:12;;;;;;;9.40;6.35;;;;;;;32.89;38.69;99183.97;4857640;29;20094;-86
2022/07/27 07:27:37;;;;;;;7.88;5.45;;;;;;;32.90;38.30;99166.56;4856713;29;20083;-86
2022/07/27 07:30:04;;;;;;;8.15;6.32;;;;;;;32.88;38.79;99144.91;4856806;29;20841;-88
2022/07/27 07:32:29;;;;;;;9.10;6.13;;;;;;;32.65;37.14;99153.91;4855278;29;20457;-87
2022/07/27 07:34:55;;;;;;;11.48;7.28;;;;;;;32.58;37.90;99182.06;4856790;29;20052;-87
2022/07/27 07:37:21;;;;;;;10.05;6.22;;;;;;;32.90;36.99;99193.88;4856559;29;20065;-87
2022/07/27 07:39:46;;;;;;;7.18;5.47;;;;;;;32.98;36.51;99181.03;4856848;29;20033;-89
2022/07/27 07:42:12;;;;;;;9.60;6.45;;;;;;;33.28;36.54;99183.91;4856706;29;20671;-88
2022/07/27 07:44:38;;;;;;;19.60;15.02;;;;;;;33.84;35.89;99193.72;4855774;29;20124;-86
2022/07/27 07:47:04;;;;;;;40.90;25.05;;;;;;;33.88;34.11;99173.19;4856495;29;20061;-85
2022/07/27 07:49:29;;;;;;;31.63;21.00;;;;;;;33.89;34.96;99167.53;4856636;29;20499;-86
2022/07/27 07:51:55;;;;;;;27.10;19.20;;;;;;;34.47;34.01;99183.31;4856641;29;20038;-85
2022/07/27 07:54:21;;;;;;;20.85;14.93;;;;;;;34.93;33.32;99169.38;4856451;29;20033;-83
2022/07/27 07:56:46;;;;;;;23.45;15.57;;;;;;;34.82;34.44;99166.28;4856750;29;20033;-84
2022/07/27 07:59:12;;;;;;;17.27;12.00;;;;;;;34.74;33.96;99173.56;4856271;29;20049;-84
2022/07/27 08:01:38;;;;;;;12.50;8.65;;;;;;;34.43;33.21;99136.31;4856094;29;20061;-86
2022/07/27 08:04:03;;;;;;;11.90;5.05;;;;;;;34.36;33.60;99176.44;4856453;29;20033;-86
2022/07/27 08:06:29;;;;;;;7.75;5.38;;;;;;;33.85;33.68;99157.16;4855839;29;20560;-86
2022/07/27 08:08:55;;;;;;;8.52;5.85;;;;;;;34.15;33.64;99179.03;4856165;29;20144;-85
2022/07/27 08:11:20;;;;;;;7.55;4.68;;;;;;;34.25;36.41;99179.66;4870079;29;20425;-85
2022/07/27 08:13:46;;;;;;;12.38;5.65;;;;;;;33.79;32.83;99150.53;4854804;29;20045;-85
2022/07/27 08:16:12;;;;;;;7.10;5.20;;;;;;;34.21;34.58;99159.97;4855526;29;20033;-85
2022/07/27 08:18:37;;;;;;;6.43;5.13;;;;;;;34.71;33.20;99184.91;4855814;29;20069;-86
2022/07/27 08:21:03;;;;;;;8.05;4.53;;;;;;;34.58;32.43;99155.44;4856037;29;20069;-86
2022/07/27 08:23:30;;;;;;;6.75;4.60;;;;;;;35.28;32.48;99175.03;4855596;29;20536;-85
2022/07/27 08:25:56;;;;;;;10.27;6.10;;;;;;;34.91;32.16;99148.69;4856210;29;20045;-86
2022/07/27 08:28:21;;;;;;;7.45;5.50;;;;;;;35.67;33.20;99153.66;4856160;29;20033;-86
2022/07/27 08:30:47;;;;;;;7.35;5.60;;;;;;;34.91;31.44;99144.06;4855448;29;20044;-86
2022/07/27 08:33:13;;;;;;;6.45;5.18;;;;;;;35.31;32.09;99144.50;4870088;29;20044;-86
2022/07/27 08:35:38;;;;;;;9.45;5.75;;;;;;;34.95;31.92;99156.31;4856176;29;20026;-86
2022/07/27 08:38:06;;;;;;;7.20;5.30;;;;;;;35.02;33.57;99167.38;4855710;29;20412;-86
2022/07/27 08:40:32;;;;;;;6.35;4.80;;;;;;;35.09;31.25;99161.94;4855670;29;20037;-86
2022/07/27 08:43:00;;;;;;;9.10;6.15;;;;;;;35.51;32.80;99146.56;4855264;29;20120;-86
2022/07/27 08:45:26;;;;;;;9.02;5.07;;;;;;;35.61;33.24;99163.53;4855362;29;20045;-86
2022/07/27 08:47:51;;;;;;;6.78;5.28;;;;;;;36.31;29.97;99152.63;4869825;29;20404;-85
2022/07/27 08:50:29;;;;;;;6.70;5.80;;;;;;;36.45;28.96;99153.53;4855290;29;20038;-85
2022/07/27 08:53:03;;;;;;;8.90;5.63;;;;;;;36.08;30.71;99158.38;4855515;29;20033;-85
2022/07/27 08:55:31;;;;;;;13.85;5.63;;;;;;;35.55;32.67;99131.41;4855459;29;20148;-87
2022/07/27 08:57:58;;;;;;;8.05;5.57;;;;;;;35.50;32.78;99142.13;4855192;29;20045;-86
2022/07/27 09:00:24;;;;;;;7.50;4.95;;;;;;;35.17;31.38;99139.88;4855592;29;20057;-85
2022/07/27 09:02:50;;;;;;;7.05;6.03;;;;;;;35.30;33.13;99141.97;4868289;29;20496;-88
2022/07/27 09:05:15;;;;;;;6.68;4.68;;;;;;;35.57;30.20;99132.03;4854061;29;20037;-84
2022/07/27 09:07:42;;;;;;;7.47;5.75;;;;;;;35.66;33.08;99132.75;4853440;29;20076;-85
2022/07/27 09:10:08;;;;;;;8.85;6.18;;;;;;;35.79;28.56;99118.31;4854964;29;20041;-84
2022/07/27 09:12:34;;;;;;;8.88;6.22;;;;;;;36.39;29.82;99104.94;4853231;29;20505;-86
2022/07/27 09:15:18;;;;;;;7.82;6.05;;;;;;;35.89;28.83;99113.31;4853772;29;20029;-86
2022/07/27 09:17:43;;;;;;;9.75;6.28;;;;;;;36.28;29.19;99122.84;4853287;29;20053;-86
2022/07/27 09:20:10;;;;;;;7.72;6.30;;;;;;;36.26;30.05;99121.38;4854512;29;20041;-87
2022/07/27 09:22:42;;;;;;;9.55;5.53;;;;;;;36.09;31.60;99107.94;4854984;29;20504;-85
2022/07/27 09:25:10;;;;;;;7.03;5.80;;;;;;;36.35;30.34;99131.97;4855001;29;20509;-85
2022/07/27 09:27:36;;;;;;;11.10;6.07;;;;;;;36.00;30.67;99099.03;4854813;29;20045;-86
2022/07/27 09:30:07;;;;;;;10.02;5.80;;;;;;;36.43;31.30;99111.72;4854823;29;20124;-87
2022/07/27 09:32:33;;;;;;;8.20;5.95;;;;;;;36.55;29.63;99081.78;4854927;29;20040;-86
2022/07/27 09:35:14;;;;;;;8.90;6.05;;;;;;;36.54;27.83;99093.81;4854567;29;20417;-87
2022/07/27 09:37:40;;;;;;;8.10;5.45;;;;;;;36.76;28.90;99093.69;4854623;29;20160;-87
2022/07/27 09:40:20;;;;;;;8.55;5.13;;;;;;;36.38;28.99;99097.78;4854682;29;20144;-86
2022/07/27 09:42:47;;;;;;;8.25;5.80;;;;;;;36.47;27.20;99099.28;4853480;29;20033;-88
2022/07/27 09:45:30;;;;;;;8.00;5.45;;;;;;;36.45;28.15;99075.81;4854579;29;20033;-87
2022/07/27 09:48:11;;;;;;;7.93;5.50;;;;;;;36.86;28.27;99052.94;4852937;29;20068;-87
2022/07/27 09:50:41;;;;;;;9.60;6.68;;;;;;;36.88;27.19;99092.84;4854653;29;20101;-85
2022/07/27 09:53:20;;;;;;;16.55;7.22;;;;;;;36.48;28.25;99092.72;4854422;29;20554;-85
2022/07/27 09:55:55;;;;;;;7.45;5.93;;;;;;;36.25;29.31;99072.97;4853555;29;20042;-85
2022/07/27 09:58:36;;;;;;;7.63;5.47;;;;;;;36.87;28.45;99102.19;4854376;29;20041;-84
2022/07/27 10:01:02;;;;;;;9.82;6.22;;;;;;;36.91;29.73;99051.22;4854761;29;20164;-85
2022/07/27 10:03:27;;;;;;;7.65;5.32;;;;;;;37.77;28.99;99077.03;4854631;29;20501;-87
2022/07/27 10:05:53;;;;;;;8.20;6.50;;;;;;;37.94;27.51;99107.69;4854546;29;20153;-87
2022/07/27 10:08:19;;;;;;;9.52;5.63;;;;;;;37.23;29.37;99091.84;4854806;29;20026;-84
2022/07/27 10:10:44;;;;;;;7.95;5.78;;;;;;;37.80;28.13;99076.63;4854360;29;20069;-84
2022/07/27 10:13:10;;;;;;;5.93;4.68;;;;;;;37.92;27.95;99076.78;4854171;29;20036;-84
2022/07/27 10:15:39;;;;;;;8.10;5.07;;;;;;;38.18;25.83;99077.78;4854579;29;20040;-84
2022/07/27 10:18:11;;;;;;;6.97;5.22;;;;;;;38.36;25.11;99088.09;4854442;29;20177;-83
2022/07/27 10:20:41;;;;;;;9.68;6.70;;;;;;;38.64;26.17;99079.50;4854216;29;20116;-86
2022/07/27 10:23:07;;;;;;;7.45;4.50;;;;;;;38.64;26.94;99096.03;4854499;29;20778;-83
2022/07/27 10:25:33;;;;;;;8.32;5.95;;;;;;;38.07;26.55;99067.44;4854272;29;20553;-84
2022/07/27 10:28:09;;;;;;;6.18;4.07;;;;;;;38.32;25.04;99062.88;4853446;29;20043;-85
2022/07/27 10:30:36;;;;;;;5.75;3.47;;;;;;;37.92;24.45;99060.25;4854472;29;20520;-85
2022/07/27 10:33:34;;;;;;;5.55;3.90;;;;;;;38.10;21.83;99069.75;4856794;29;20029;-84
2022/07/27 10:36:01;;;;;;;6.00;3.35;;;;;;;38.76;22.35;99079.66;4852287;29;20072;-84
2022/07/27 10:38:44;;;;;;;4.55;3.28;;;;;;;38.25;22.54;99073.13;4857476;29;20037;-83
2022/07/27 10:41:26;;;;;;;6.68;4.85;;;;;;;38.39;25.66;99051.88;4857524;29;20120;-84
2022/07/27 10:44:13;;;;;;;5.70;4.18;;;;;;;38.42;26.50;99072.59;4857569;29;20504;-84
2022/07/27 10:47:02;;;;;;;6.30;4.75;;;;;;;37.93;24.72;99078.47;4857721;29;20038;-82
2022/07/27 10:49:28;;;;;;;8.70;6.95;;;;;;;37.90;25.75;99083.56;4857671;29;20504;-85
2022/07/27 10:51:56;;;;;;;10.05;7.65;;;;;;;38.15;23.96;99059.75;4857673;29;20033;-84
2022/07/27 10:54:36;;;;;;;9.65;7.35;;;;;;;38.33;23.72;99063.75;4857819;29;20116;-83
2022/07/27 10:57:05;;;;;;;10.65;7.10;;;;;;;38.72;23.35;99037.06;4857698;29;20052;-83
2022/07/27 10:59:36;;;;;;;8.15;6.07;;;;;;;38.97;24.27;99080.34;4856554;29;20064;-83
2022/07/27 11:02:04;;;;;;;9.30;6.32;;;;;;;38.86;23.86;99044.16;4857377;29;20041;-83
2022/07/27 11:04:31;;;;;;;8.38;7.10;;;;;;;38.73;23.80;99055.28;4857476;29;20038;-84
2022/07/27 11:07:01;;;;;;;9.80;5.68;;;;;;;38.56;23.12;99054.09;4857280;29;20041;-86
2022/07/27 11:09:40;;;;;;;9.73;5.40;;;;;;;38.43;23.33;99032.97;4856195;29;20038;-85
2022/07/27 11:12:09;;;;;;;8.70;5.55;;;;;;;39.08;21.69;99046.53;4857448;29;20087;-85
2022/07/27 11:14:51;;;;;;;8.55;6.00;;;;;;;39.09;22.28;99059.28;4857276;29;20687;-86
2022/07/27 11:17:24;;;;;;;10.27;7.15;;;;;;;38.89;22.74;99042.03;4856813;29;20044;-84
2022/07/27 11:19:53;;;;;;;6.77;5.03;;;;;;;38.66;21.62;99057.25;4856658;29;20037;-84
2022/07/27 11:22:39;;;;;;;9.70;6.18;;;;;;;38.94;24.68;99056.81;4856428;29;20042;-84
2022/07/27 11:25:06;;;;;;;8.70;5.55;;;;;;;38.89;23.54;99012.56;4856874;29;20052;-84
2022/07/27 11:27:32;;;;;;;6.93;4.72;;;;;;;38.55;24.54;99027.63;4856265;29;20097;-85
2022/07/27 11:29:58;;;;;;;6.57;4.45;;;;;;;39.11;22.88;99017.72;4856188;29;20037;-86
2022/07/27 11:32:23;;;;;;;6.40;4.40;;;;;;;38.94;21.09;99034.78;4854389;29;20029;-85
2022/07/27 11:34:49;;;;;;;7.30;4.80;;;;;;;39.27;20.61;99017.16;4857114;29;20637;-86